Terminal Aerodrome Forecast
Issued by NWS

Home | Current Version | Previous Version | Text Only | Print | Product List | Glossary On
Versions: 1 2 3 4 5 6 7 8 9 10 11 12 13
000
FTUS44 KTSA 061740
TAFRVS
TAF
KRVS 061740Z 0618/0718 19011KT P6SM BKN035 BKN100
     FM062300 18010KT P6SM OVC100
     FM070400 18007KT P6SM -SHRA OVC090
     FM070800 18007KT 5SM TSRA BKN025 OVC050CB
     FM071200 12005KT 4SM -SHRA BKN015 OVC040=

USA.gov is the U.S. government's official web portal to all federal, state and local government web resources and services.